Time;durP1;ratioP1;P1;durP2;ratioP2;P2;SDS_P1;SDS_P2;PMS_P1;PMS_P2;Temp;Humidity;BMP_temperature;BMP_pressure;BME280_temperature;BME280_humidity;BME280_pressure;Samples;Min_cycle;Max_cycle;Signal;HPM_P1;HPM_P2
2022/12/05 00:02:02;;;;;;;;;;;2.70;99.90;;;;;;2603859;54;19989;31
2022/12/05 00:04:37;;;;;;;;;;;2.70;99.90;;;;;;2603702;54;19935;31
2022/12/05 00:07:11;;;;;;;;;;;3.10;99.90;;;;;;2603624;54;20663;31
2022/12/05 00:09:51;;;;;;;;;;;2.70;99.90;;;;;;2622456;46;19956;31
2022/12/05 00:12:26;;;;;;;;;;;2.70;99.90;;;;;;2622247;46;20744;31
2022/12/05 00:14:58;;;;;;;;;;;2.70;99.90;;;;;;2622194;46;19934;31
2022/12/05 00:17:33;;;;;;;;;;;2.70;99.90;;;;;;2622204;46;20849;31
2022/12/05 00:20:10;;;;;;;;;;;2.70;99.90;;;;;;2622188;46;20337;31
2022/12/05 00:22:46;;;;;;;;;;;2.70;99.90;;;;;;2603650;54;20803;31
2022/12/05 00:25:24;;;;;;;;;;;2.70;99.90;;;;;;2603813;54;20355;31
2022/12/05 00:27:58;;;;;;;;;;;2.70;99.90;;;;;;2603723;54;19939;31
2022/12/05 00:30:33;;;;;;;;;;;2.70;99.90;;;;;;2622262;46;20327;31
2022/12/05 00:33:10;;;;;;;;;;;2.80;99.90;;;;;;2603711;54;20768;31
2022/12/05 00:35:46;;;;;;;;;;;2.70;99.90;;;;;;2603765;54;19934;31
2022/12/05 00:38:21;;;;;;;;;;;2.70;99.90;;;;;;2702384;39;20279;31
2022/12/05 00:40:58;;;;;;;;;;;2.70;99.90;;;;;;2603546;54;19950;31
2022/12/05 00:43:33;;;;;;;;;;;2.70;99.90;;;;;;2603699;54;21035;31
2022/12/05 00:46:05;;;;;;;;;;;2.70;99.90;;;;;;2622168;46;19935;31
2022/12/05 00:48:39;;;;;;;;;;;2.80;99.90;;;;;;2603488;54;20855;31
2022/12/05 00:51:14;;;;;;;;;;;2.70;99.90;;;;;;2603516;54;19935;31
2022/12/05 00:53:48;;;;;;;;;;;2.70;99.90;;;;;;2603260;54;19946;31
2022/12/05 00:56:26;;;;;;;;;;;2.70;99.90;;;;;;2622299;46;19935;31
2022/12/05 00:59:02;;;;;;;;;;;2.70;99.90;;;;;;2603511;54;19960;31
2022/12/05 01:01:35;;;;;;;;;;;2.70;99.90;;;;;;2603666;54;20338;31
2022/12/05 01:04:12;;;;;;;;;;;2.70;99.90;;;;;;2603592;54;20056;31
2022/12/05 01:06:47;;;;;;;;;;;2.70;99.90;;;;;;2603597;54;19961;31
2022/12/05 01:09:22;;;;;;;;;;;2.80;99.90;;;;;;2603406;54;19935;31
2022/12/05 01:12:01;;;;;;;;;;;2.80;99.90;;;;;;2603634;54;19936;31
2022/12/05 01:14:35;;;;;;;;;;;2.80;99.90;;;;;;2603421;54;20690;31
2022/12/05 01:17:09;;;;;;;;;;;2.80;99.90;;;;;;2603532;54;19938;31
2022/12/05 01:19:43;;;;;;;;;;;2.80;99.90;;;;;;2603432;54;20685;31
2022/12/05 01:22:17;;;;;;;;;;;2.80;99.90;;;;;;2622009;46;20743;31
2022/12/05 01:24:52;;;;;;;;;;;2.80;99.90;;;;;;2622051;46;19935;31
2022/12/05 01:27:28;;;;;;;;;;;2.70;99.90;;;;;;2603343;54;19961;31
2022/12/05 01:30:02;;;;;;;;;;;2.70;99.90;;;;;;2603338;54;19997;31
2022/12/05 01:32:37;;;;;;;;;;;2.70;99.90;;;;;;2621967;46;20811;31
2022/12/05 01:35:13;;;;;;;;;;;2.70;99.90;;;;;;2622035;46;19934;31
2022/12/05 01:37:47;;;;;;;;;;;2.70;99.90;;;;;;2603482;54;19939;31
2022/12/05 01:40:21;;;;;;;;;;;2.70;99.90;;;;;;2622128;46;19993;31
2022/12/05 01:42:59;;;;;;;;;;;2.70;99.90;;;;;;2622050;46;20845;31
2022/12/05 01:45:34;;;;;;;;;;;2.70;99.90;;;;;;2603542;54;19935;31
2022/12/05 01:48:09;;;;;;;;;;;2.70;99.90;;;;;;2621992;46;20767;31
2022/12/05 01:50:43;;;;;;;;;;;2.70;99.90;;;;;;2603258;54;19938;31
2022/12/05 01:53:17;;;;;;;;;;;2.70;99.90;;;;;;2621531;47;19993;31
2022/12/05 01:55:52;;;;;;;;;;;2.80;99.90;;;;;;2621628;47;19942;31
2022/12/05 01:58:30;;;;;;;;;;;2.80;99.90;;;;;;2603480;54;20793;31
2022/12/05 02:01:05;;;;;;;;;;;2.80;99.90;;;;;;2603249;54;20787;31
2022/12/05 02:03:40;;;;;;;;;;;2.80;99.90;;;;;;2622573;46;19934;31
2022/12/05 02:06:15;;;;;;;;;;;2.80;99.90;;;;;;2603335;54;20748;31
2022/12/05 02:08:48;;;;;;;;;;;2.80;99.90;;;;;;2619215;46;19941;31
2022/12/05 02:11:22;;;;;;;;;;;2.80;99.90;;;;;;2622742;46;19941;31
2022/12/05 02:13:58;;;;;;;;;;;2.80;99.90;;;;;;2604042;54;19941;31
2022/12/05 02:16:38;;;;;;;;;;;2.80;99.90;;;;;;2604393;54;19935;31
2022/12/05 02:19:19;;;;;;;;;;;2.80;99.90;;;;;;2603931;54;19935;31
2022/12/05 02:22:01;;;;;;;;;;;2.80;99.90;;;;;;2603899;54;19946;31
2022/12/05 02:24:51;;;;;;;;;;;2.80;99.90;;;;;;2622700;46;19941;31
2022/12/05 02:27:30;;;;;;;;;;;2.80;99.90;;;;;;2604045;54;19941;31
2022/12/05 02:30:06;;;;;;;;;;;2.80;99.90;;;;;;2622272;46;20713;31
2022/12/05 02:32:47;;;;;;;;;;;2.80;99.90;;;;;;2603907;54;19941;31
2022/12/05 02:35:30;;;;;;;;;;;2.80;99.90;;;;;;2622426;46;19935;31
2022/12/05 02:38:06;;;;;;;;;;;3.70;99.90;;;;;;2604021;54;19934;31
2022/12/05 02:40:42;;;;;;;;;;;2.80;99.90;;;;;;2622649;46;20727;31
2022/12/05 02:43:18;;;;;;;;;;;2.80;99.90;;;;;;2622646;46;20751;31
2022/12/05 02:45:54;;;;;;;;;;;2.80;99.90;;;;;;2604046;54;19977;31
2022/12/05 02:48:27;;;;;;;;;;;2.80;99.90;;;;;;2622617;46;19941;31
2022/12/05 02:51:01;;;;;;;;;;;3.10;99.90;;;;;;2604162;54;19966;31
2022/12/05 02:53:41;;;;;;;;;;;2.90;99.90;;;;;;2603962;54;20854;31
2022/12/05 02:56:15;;;;;;;;;;;2.90;99.90;;;;;;2622433;46;19942;31
2022/12/05 02:58:51;;;;;;;;;;;2.90;99.90;;;;;;2604160;54;19997;31
2022/12/05 03:01:30;;;;;;;;;;;2.80;99.90;;;;;;2603713;54;20748;31
2022/12/05 03:04:04;;;;;;;;;;;2.90;99.90;;;;;;2604090;54;20018;31
2022/12/05 03:06:38;;;;;;;;;;;2.80;99.90;;;;;;2622556;46;19966;31
2022/12/05 03:09:13;;;;;;;;;;;2.80;99.90;;;;;;2622184;46;19935;31
2022/12/05 03:11:48;;;;;;;;;;;2.90;99.90;;;;;;2622594;46;19934;31
2022/12/05 03:14:22;;;;;;;;;;;2.90;99.90;;;;;;2622271;47;19935;31
2022/12/05 03:16:59;;;;;;;;;;;2.90;99.90;;;;;;2622317;46;20495;31
2022/12/05 03:19:34;;;;;;;;;;;2.90;99.90;;;;;;2603820;54;19939;31
2022/12/05 03:22:10;;;;;;;;;;;2.90;99.90;;;;;;2603860;54;20781;31
2022/12/05 03:24:45;;;;;;;;;;;2.90;99.90;;;;;;2603927;54;20005;31
2022/12/05 03:27:22;;;;;;;;;;;2.90;99.90;;;;;;2792323;31;20546;31
2022/12/05 03:30:00;;;;;;;;;;;2.90;99.90;;;;;;2720800;39;20382;31
2022/12/05 03:32:38;;;;;;;;;;;2.90;99.90;;;;;;2612312;46;20434;31
2022/12/05 03:35:13;;;;;;;;;;;2.90;99.90;;;;;;2603624;54;20548;31
2022/12/05 03:37:48;;;;;;;;;;;2.90;99.90;;;;;;2622446;46;20819;31
2022/12/05 03:40:26;;;;;;;;;;;2.90;99.90;;;;;;2622403;46;20014;31
2022/12/05 03:43:01;;;;;;;;;;;2.90;99.90;;;;;;2704145;39;20247;31
2022/12/05 03:45:36;;;;;;;;;;;2.90;99.90;;;;;;2792304;31;20509;31
2022/12/05 03:48:16;;;;;;;;;;;2.90;99.90;;;;;;2603545;54;20870;31
2022/12/05 03:50:49;;;;;;;;;;;2.90;99.90;;;;;;2603853;54;19935;31
2022/12/05 03:53:24;;;;;;;;;;;2.90;99.90;;;;;;2603863;54;19941;31
2022/12/05 03:55:59;;;;;;;;;;;2.90;99.90;;;;;;2622285;46;20000;31
2022/12/05 03:58:35;;;;;;;;;;;2.80;99.90;;;;;;2702088;39;20246;31
2022/12/05 04:01:09;;;;;;;;;;;2.80;99.90;;;;;;2603703;54;19961;31
2022/12/05 04:03:48;;;;;;;;;;;2.80;99.90;;;;;;2603595;54;19934;31
2022/12/05 04:06:23;;;;;;;;;;;2.80;99.90;;;;;;2603804;54;19994;31
2022/12/05 04:08:57;;;;;;;;;;;2.80;99.90;;;;;;2622252;46;19935;31
2022/12/05 04:11:32;;;;;;;;;;;2.80;99.90;;;;;;2603397;54;20747;31
2022/12/05 04:14:07;;;;;;;;;;;2.80;99.90;;;;;;2603687;54;20684;31
2022/12/05 04:21:36;;;;;;;;;;;2.80;99.90;;;;;;2622134;46;19935;31
2022/12/05 04:22:22;;;;;;;;;;;2.70;99.90;;;;;;2603628;54;20817;31
2022/12/05 04:27:42;;;;;;;;;;;2.70;99.90;;;;;;2792386;31;20417;31
2022/12/05 04:30:18;;;;;;;;;;;2.70;99.90;;;;;;2603811;54;19962;31
2022/12/05 04:32:54;;;;;;;;;;;2.70;99.90;;;;;;2603722;54;19935;31
2022/12/05 04:35:29;;;;;;;;;;;2.70;99.90;;;;;;2603474;54;19934;31
2022/12/05 04:38:05;;;;;;;;;;;2.70;99.90;;;;;;2622330;46;19934;31
2022/12/05 04:40:39;;;;;;;;;;;2.70;99.90;;;;;;2603475;54;20349;31
2022/12/05 04:43:13;;;;;;;;;;;2.70;99.90;;;;;;2621841;46;19935;31
2022/12/05 04:45:48;;;;;;;;;;;2.70;99.90;;;;;;2622208;46;20014;31
2022/12/05 04:48:23;;;;;;;;;;;2.70;99.90;;;;;;2773746;31;20366;31
2022/12/05 04:51:00;;;;;;;;;;;2.70;99.90;;;;;;2603422;54;19935;31
2022/12/05 04:53:33;;;;;;;;;;;2.70;99.90;;;;;;2603750;54;20770;31
2022/12/05 04:56:09;;;;;;;;;;;2.70;99.90;;;;;;2603597;54;19935;31
2022/12/05 04:58:44;;;;;;;;;;;2.70;99.90;;;;;;2603535;54;19938;31
2022/12/05 05:01:17;;;;;;;;;;;2.70;99.90;;;;;;2603391;54;19942;31
2022/12/05 05:03:52;;;;;;;;;;;2.70;99.90;;;;;;2619266;39;20204;31
2022/12/05 05:06:30;;;;;;;;;;;2.70;99.90;;;;;;2622258;46;19939;31
2022/12/05 05:09:03;;;;;;;;;;;2.70;99.90;;;;;;2603470;54;19935;31
2022/12/05 05:11:40;;;;;;;;;;;2.70;99.90;;;;;;2603424;54;19943;31
2022/12/05 05:14:14;;;;;;;;;;;2.70;99.90;;;;;;2621589;46;20741;31
2022/12/05 05:16:48;;;;;;;;;;;2.70;99.90;;;;;;2622168;46;19969;31
2022/12/05 05:19:22;;;;;;;;;;;2.70;99.90;;;;;;2621929;46;19935;31
2022/12/05 05:22:00;;;;;;;;;;;2.70;99.90;;;;;;2603375;54;19935;31
2022/12/05 05:24:35;;;;;;;;;;;2.70;99.90;;;;;;2603616;54;20745;31
2022/12/05 05:27:09;;;;;;;;;;;2.70;99.90;;;;;;2622121;46;19935;31
2022/12/05 05:29:44;;;;;;;;;;;2.70;99.90;;;;;;2603396;54;19941;31
2022/12/05 05:32:19;;;;;;;;;;;2.70;99.90;;;;;;2603359;54;20036;31
2022/12/05 05:34:55;;;;;;;;;;;2.70;99.90;;;;;;2603687;54;19942;31
2022/12/05 05:37:33;;;;;;;;;;;2.70;99.90;;;;;;2603024;54;20698;31
2022/12/05 05:40:08;;;;;;;;;;;2.70;99.90;;;;;;2603523;54;19935;31
2022/12/05 05:42:45;;;;;;;;;;;2.60;99.90;;;;;;2603250;54;19942;31
2022/12/05 05:45:19;;;;;;;;;;;2.70;99.90;;;;;;2603347;54;20887;31
2022/12/05 05:47:56;;;;;;;;;;;2.60;99.90;;;;;;2602418;54;19950;31
2022/12/05 05:50:30;;;;;;;;;;;2.70;99.90;;;;;;2603413;54;20763;31
2022/12/05 05:53:08;;;;;;;;;;;2.70;99.90;;;;;;2603241;54;19935;31
2022/12/05 05:55:42;;;;;;;;;;;2.70;99.90;;;;;;2773615;31;20341;31
2022/12/05 05:58:16;;;;;;;;;;;2.70;99.90;;;;;;2604917;47;19941;31
2022/12/05 06:00:51;;;;;;;;;;;2.70;99.90;;;;;;2621969;47;20736;31
2022/12/05 06:03:24;;;;;;;;;;;2.70;99.90;;;;;;2621872;47;19935;31
2022/12/05 06:06:00;;;;;;;;;;;2.70;99.90;;;;;;2603442;54;19934;31
2022/12/05 06:08:35;;;;;;;;;;;2.70;99.90;;;;;;2603227;54;20022;31
2022/12/05 06:11:10;;;;;;;;;;;2.70;99.90;;;;;;2622012;47;19941;31
2022/12/05 06:13:43;;;;;;;;;;;2.70;99.90;;;;;;2621988;47;19950;31
2022/12/05 06:16:17;;;;;;;;;;;2.70;99.90;;;;;;2603008;54;20766;31
2022/12/05 06:18:51;;;;;;;;;;;2.70;99.90;;;;;;2602329;54;20774;31
2022/12/05 06:21:25;;;;;;;;;;;2.80;99.90;;;;;;2621535;47;20728;31
2022/12/05 06:24:02;;;;;;;;;;;2.80;99.90;;;;;;2603026;54;20793;31
2022/12/05 06:26:39;;;;;;;;;;;2.70;99.90;;;;;;2603269;54;20790;31
2022/12/05 06:29:14;;;;;;;;;;;2.80;99.90;;;;;;2603218;54;20781;31
2022/12/05 06:31:48;;;;;;;;;;;2.80;99.90;;;;;;2603432;54;19962;31
2022/12/05 06:34:20;;;;;;;;;;;2.80;99.90;;;;;;2621815;47;19951;31
2022/12/05 06:36:54;;;;;;;;;;;2.80;99.90;;;;;;2603247;54;20761;31
2022/12/05 06:39:34;;;;;;;;;;;2.80;99.90;;;;;;2602915;54;19934;31
2022/12/05 06:42:09;;;;;;;;;;;2.80;99.90;;;;;;2603241;54;19935;31
2022/12/05 06:44:41;;;;;;;;;;;2.80;99.90;;;;;;2621807;47;19956;31
2022/12/05 06:47:18;;;;;;;;;;;2.80;99.90;;;;;;2603396;54;19934;31
2022/12/05 06:49:52;;;;;;;;;;;2.80;99.90;;;;;;2603966;54;20018;31
2022/12/05 06:52:27;;;;;;;;;;;2.80;99.90;;;;;;2603817;54;20842;31
2022/12/05 06:55:05;;;;;;;;;;;2.80;99.90;;;;;;2603675;54;20785;31
2022/12/05 06:57:38;;;;;;;;;;;2.80;99.90;;;;;;2603486;54;20772;31
2022/12/05 07:03:00;;;;;;;;;;;3.10;99.90;;;;;;2603761;54;20789;31
2022/12/05 07:05:35;;;;;;;;;;;2.80;99.90;;;;;;2603854;54;19939;31
2022/12/05 07:08:10;;;;;;;;;;;2.80;99.90;;;;;;2603689;54;19954;31
2022/12/05 07:10:51;;;;;;;;;;;2.80;99.90;;;;;;2603711;54;20726;31
2022/12/05 07:13:25;;;;;;;;;;;2.80;99.90;;;;;;2622254;46;19957;31
2022/12/05 07:16:00;;;;;;;;;;;2.80;99.90;;;;;;2603929;54;19935;31
2022/12/05 07:18:34;;;;;;;;;;;2.80;99.90;;;;;;2622376;46;19946;31
2022/12/05 07:21:10;;;;;;;;;;;2.80;99.90;;;;;;2603832;54;19941;31
2022/12/05 07:23:47;;;;;;;;;;;2.80;99.90;;;;;;2603801;54;19934;31
2022/12/05 07:26:26;;;;;;;;;;;2.80;99.90;;;;;;2603981;54;20774;31
2022/12/05 07:29:02;;;;;;;;;;;2.80;99.90;;;;;;2604018;54;20743;31
2022/12/05 07:31:35;;;;;;;;;;;2.80;99.90;;;;;;2603750;54;19946;31
2022/12/05 07:34:09;;;;;;;;;;;2.80;99.90;;;;;;2702137;39;21152;31
2022/12/05 07:36:44;;;;;;;;;;;2.90;99.90;;;;;;2622613;46;20768;31
2022/12/05 07:39:19;;;;;;;;;;;2.90;99.90;;;;;;2603935;54;19931;31
2022/12/05 07:41:57;;;;;;;;;;;2.90;99.90;;;;;;2603615;54;20809;31
2022/12/05 07:44:31;;;;;;;;;;;2.90;99.90;;;;;;2622172;46;20831;31
2022/12/05 07:47:04;;;;;;;;;;;2.90;99.90;;;;;;2603374;54;19938;31
2022/12/05 07:49:40;;;;;;;;;;;2.90;99.90;;;;;;2603586;54;19935;31
2022/12/05 07:52:14;;;;;;;;;;;2.90;99.90;;;;;;2603503;54;20703;31
2022/12/05 07:54:48;;;;;;;;;;;2.90;99.90;;;;;;2603860;54;19947;31
2022/12/05 07:57:26;;;;;;;;;;;2.90;99.90;;;;;;2603563;54;20728;31
2022/12/05 08:00:00;;;;;;;;;;;2.90;99.90;;;;;;2613137;46;20800;31
2022/12/05 08:02:35;;;;;;;;;;;2.90;99.90;;;;;;2603018;54;19934;31
2022/12/05 08:05:14;;;;;;;;;;;2.90;99.90;;;;;;2603766;54;20069;31
2022/12/05 08:07:48;;;;;;;;;;;2.90;99.90;;;;;;2603541;54;20768;31
2022/12/05 08:10:22;;;;;;;;;;;2.90;99.90;;;;;;2622364;46;19935;31
2022/12/05 08:13:00;;;;;;;;;;;2.90;99.90;;;;;;2603624;54;20712;31
2022/12/05 08:15:35;;;;;;;;;;;2.90;99.90;;;;;;2622167;46;19941;31
2022/12/05 08:18:08;;;;;;;;;;;3.00;99.90;;;;;;2603769;54;19946;31
2022/12/05 08:20:47;;;;;;;;;;;3.00;99.90;;;;;;2603713;54;19935;31
2022/12/05 08:23:20;;;;;;;;;;;2.90;99.90;;;;;;2720552;39;20226;31
2022/12/05 08:25:55;;;;;;;;;;;3.00;99.90;;;;;;2603630;54;19941;31
2022/12/05 08:28:31;;;;;;;;;;;3.00;99.90;;;;;;2621924;46;19941;31
2022/12/05 08:31:07;;;;;;;;;;;2.90;99.90;;;;;;2603773;54;20755;31
2022/12/05 08:33:42;;;;;;;;;;;3.00;99.90;;;;;;2603535;54;20789;31
2022/12/05 08:36:18;;;;;;;;;;;2.90;99.90;;;;;;2603420;54;19941;31
2022/12/05 08:38:51;;;;;;;;;;;3.00;99.90;;;;;;2603807;54;20734;31
2022/12/05 08:41:27;;;;;;;;;;;3.00;99.90;;;;;;2603659;54;19993;31
2022/12/05 08:44:05;;;;;;;;;;;3.00;99.90;;;;;;2621906;46;19935;31
2022/12/05 08:46:40;;;;;;;;;;;3.00;99.90;;;;;;2702123;39;21275;31
2022/12/05 08:49:15;;;;;;;;;;;3.00;99.90;;;;;;2622355;46;19935;31
2022/12/05 08:51:50;;;;;;;;;;;3.00;99.90;;;;;;2629689;39;21279;31
2022/12/05 08:54:24;;;;;;;;;;;3.00;99.90;;;;;;2603420;54;20811;31
2022/12/05 08:56:58;;;;;;;;;;;3.00;99.90;;;;;;2603471;54;20078;31
2022/12/05 08:59:34;;;;;;;;;;;3.00;99.90;;;;;;2621793;46;20768;31
2022/12/05 09:02:09;;;;;;;;;;;3.10;99.90;;;;;;2603616;54;19946;31
2022/12/05 09:04:42;;;;;;;;;;;3.10;99.90;;;;;;2603343;54;22179;31
2022/12/05 09:07:16;;;;;;;;;;;3.10;99.90;;;;;;2621894;46;19966;31
2022/12/05 09:09:51;;;;;;;;;;;3.10;99.90;;;;;;2603502;54;19942;31
2022/12/05 09:12:24;;;;;;;;;;;3.20;99.90;;;;;;2701190;39;20408;31
2022/12/05 09:15:02;;;;;;;;;;;3.10;99.90;;;;;;2603329;54;19934;31
2022/12/05 09:17:37;;;;;;;;;;;3.10;99.90;;;;;;2622030;46;20800;31
2022/12/05 09:20:12;;;;;;;;;;;3.20;99.90;;;;;;2603420;54;20749;31
2022/12/05 09:22:47;;;;;;;;;;;3.20;99.90;;;;;;2603317;54;19935;31
2022/12/05 09:25:22;;;;;;;;;;;3.20;99.90;;;;;;2720439;39;20317;31
2022/12/05 09:27:57;;;;;;;;;;;3.20;99.90;;;;;;2603481;54;20728;31
2022/12/05 09:30:35;;;;;;;;;;;3.20;99.90;;;;;;2603499;54;20779;31
2022/12/05 09:33:10;;;;;;;;;;;3.30;99.90;;;;;;2603345;54;19935;31
2022/12/05 09:35:45;;;;;;;;;;;3.30;99.90;;;;;;2701757;39;21050;31
2022/12/05 09:38:21;;;;;;;;;;;3.30;99.90;;;;;;2621913;46;19941;31
2022/12/05 09:40:56;;;;;;;;;;;3.30;99.90;;;;;;2622160;46;19943;31
2022/12/05 09:43:33;;;;;;;;;;;3.30;99.90;;;;;;2603524;54;20725;31
2022/12/05 09:46:13;;;;;;;;;;;3.40;99.90;;;;;;2603121;54;20806;31
2022/12/05 09:48:47;;;;;;;;;;;3.40;99.90;;;;;;2701757;39;20333;31
2022/12/05 09:51:21;;;;;;;;;;;3.40;99.90;;;;;;2621880;46;20436;31
2022/12/05 09:53:57;;;;;;;;;;;3.40;99.90;;;;;;2603198;54;20849;31
2022/12/05 09:56:33;;;;;;;;;;;3.50;99.90;;;;;;2720460;39;20230;31
2022/12/05 09:59:08;;;;;;;;;;;3.50;99.90;;;;;;2603470;54;20813;31
2022/12/05 10:01:46;;;;;;;;;;;3.50;99.90;;;;;;2621369;47;19935;31
2022/12/05 10:04:27;;;;;;;;;;;3.50;99.90;;;;;;2603305;54;20033;31
2022/12/05 10:07:05;;;;;;;;;;;3.50;99.90;;;;;;2621433;47;19950;31
2022/12/05 10:09:47;;;;;;;;;;;3.50;99.90;;;;;;2603255;54;19941;31
2022/12/05 10:12:23;;;;;;;;;;;3.60;99.90;;;;;;2603121;54;19934;31
2022/12/05 10:15:01;;;;;;;;;;;3.60;99.90;;;;;;2603148;54;20828;31
2022/12/05 10:17:42;;;;;;;;;;;3.60;99.90;;;;;;2608867;47;19935;31
2022/12/05 10:20:16;;;;;;;;;;;3.60;99.90;;;;;;2603121;54;21095;31
2022/12/05 10:22:52;;;;;;;;;;;3.50;99.90;;;;;;2603891;54;20014;31
2022/12/05 10:25:27;;;;;;;;;;;3.60;99.90;;;;;;2603999;54;19997;31
2022/12/05 10:28:02;;;;;;;;;;;3.50;99.90;;;;;;2622340;46;19951;31
2022/12/05 10:30:36;;;;;;;;;;;3.60;99.90;;;;;;2622609;46;19941;31
2022/12/05 10:33:16;;;;;;;;;;;3.50;99.90;;;;;;2604167;54;19935;31
2022/12/05 10:35:53;;;;;;;;;;;3.50;99.90;;;;;;2622420;46;20014;31
2022/12/05 10:38:27;;;;;;;;;;;3.50;99.90;;;;;;2622362;46;19946;31
2022/12/05 10:41:08;;;;;;;;;;;3.50;99.90;;;;;;2622566;46;20752;31
2022/12/05 10:43:44;;;;;;;;;;;3.60;99.90;;;;;;2622653;46;20844;31
2022/12/05 10:46:17;;;;;;;;;;;3.50;99.90;;;;;;2603946;54;19941;31
2022/12/05 10:48:55;;;;;;;;;;;3.60;99.90;;;;;;2603575;54;20750;31
2022/12/05 10:51:30;;;;;;;;;;;3.60;99.90;;;;;;2603784;54;20735;31
2022/12/05 10:54:16;;;;;;;;;;;3.60;99.90;;;;;;2622451;46;20778;31
2022/12/05 10:56:49;;;;;;;;;;;3.60;99.90;;;;;;2604165;54;19961;31
2022/12/05 10:59:23;;;;;;;;;;;3.60;99.90;;;;;;2622312;46;19989;31
2022/12/05 11:01:59;;;;;;;;;;;3.60;99.90;;;;;;2604046;54;20769;31
2022/12/05 11:04:44;;;;;;;;;;;3.60;99.90;;;;;;2604129;54;19935;31
2022/12/05 11:07:33;;;;;;;;;;;3.60;99.90;;;;;;2603671;54;19941;31
2022/12/05 11:10:22;;;;;;;;;;;3.60;99.90;;;;;;2702292;39;20239;31
2022/12/05 11:13:02;;;;;;;;;;;3.60;99.90;;;;;;2603865;54;20758;31
2022/12/05 11:15:36;;;;;;;;;;;3.70;99.90;;;;;;2603853;54;20030;31
2022/12/05 11:18:20;;;;;;;;;;;3.60;99.90;;;;;;2603807;54;19942;31
2022/12/05 11:20:57;;;;;;;;;;;3.70;99.90;;;;;;2603589;54;20839;31
2022/12/05 11:23:32;;;;;;;;;;;3.70;99.90;;;;;;2603955;54;19934;31
2022/12/05 11:26:07;;;;;;;;;;;3.70;99.90;;;;;;2603980;54;20761;31
2022/12/05 11:28:43;;;;;;;;;;;3.80;99.90;;;;;;2603886;54;19981;31
2022/12/05 11:31:24;;;;;;;;;;;3.80;99.90;;;;;;2622364;46;19935;31
2022/12/05 11:34:02;;;;;;;;;;;3.90;99.90;;;;;;2603665;54;20005;31
2022/12/05 11:36:41;;;;;;;;;;;3.80;99.90;;;;;;2603907;54;20734;31
2022/12/05 11:39:16;;;;;;;;;;;3.80;99.90;;;;;;2603856;54;20800;31
2022/12/05 11:41:55;;;;;;;;;;;3.90;99.90;;;;;;2603892;54;20076;31
2022/12/05 11:44:32;;;;;;;;;;;3.90;99.90;;;;;;2604060;54;20014;31
2022/12/05 11:47:09;;;;;;;;;;;3.90;99.90;;;;;;2603730;54;19941;31
2022/12/05 11:49:58;;;;;;;;;;;3.90;99.90;;;;;;2622161;46;19946;31
2022/12/05 11:52:33;;;;;;;;;;;3.90;99.90;;;;;;2603408;54;20801;31
2022/12/05 11:55:18;;;;;;;;;;;4.00;99.90;;;;;;2603703;54;20711;31
2022/12/05 11:57:56;;;;;;;;;;;4.00;99.90;;;;;;2603755;54;19942;31
2022/12/05 12:00:32;;;;;;;;;;;4.00;99.90;;;;;;2614395;46;20811;31
2022/12/05 12:03:23;;;;;;;;;;;4.00;99.90;;;;;;2603798;54;19961;31
2022/12/05 12:06:07;;;;;;;;;;;4.00;99.90;;;;;;2603663;54;20747;31
2022/12/05 12:08:44;;;;;;;;;;;4.00;99.90;;;;;;2603553;54;20394;31
2022/12/05 12:11:23;;;;;;;;;;;4.00;99.90;;;;;;2621994;46;19941;31
2022/12/05 12:14:00;;;;;;;;;;;4.00;99.90;;;;;;2612694;46;19997;31
2022/12/05 12:16:34;;;;;;;;;;;4.00;99.90;;;;;;2603827;54;19941;31
2022/12/05 12:19:22;;;;;;;;;;;4.10;99.90;;;;;;2622213;46;19935;31
2022/12/05 12:22:01;;;;;;;;;;;4.10;99.90;;;;;;2621859;46;20026;31
2022/12/05 12:24:34;;;;;;;;;;;4.10;99.90;;;;;;2622067;46;19934;31
2022/12/05 12:27:13;;;;;;;;;;;4.10;99.90;;;;;;2621810;46;19935;31
2022/12/05 12:29:54;;;;;;;;;;;4.10;99.90;;;;;;2610578;46;20752;31
2022/12/05 12:32:29;;;;;;;;;;;4.10;99.90;;;;;;2603634;54;19934;31
2022/12/05 12:35:05;;;;;;;;;;;4.20;99.90;;;;;;2603662;54;19946;31
2022/12/05 12:37:43;;;;;;;;;;;4.20;99.90;;;;;;2603535;54;20077;31
2022/12/05 12:43:43;;;;;;;;;;;4.30;99.90;;;;;;2622239;46;19965;31
2022/12/05 12:46:35;;;;;;;;;;;4.40;99.90;;;;;;2603522;54;19981;31
2022/12/05 12:49:13;;;;;;;;;;;4.40;99.90;;;;;;2603458;54;19938;31
2022/12/05 12:51:56;;;;;;;;;;;4.50;99.90;;;;;;2609122;46;19938;31
2022/12/05 12:58:07;;;;;;;;;;;4.40;99.90;;;;;;2603407;54;19943;31
2022/12/05 13:00:45;;;;;;;;;;;4.40;99.90;;;;;;2620877;46;19965;31
2022/12/05 13:03:22;;;;;;;;;;;4.40;99.90;;;;;;2701793;39;20194;31
2022/12/05 13:05:57;;;;;;;;;;;4.40;99.90;;;;;;2621763;46;19934;31
2022/12/05 13:08:32;;;;;;;;;;;4.50;99.90;;;;;;2627200;39;20222;31
2022/12/05 13:11:08;;;;;;;;;;;4.50;99.90;;;;;;2603446;54;19934;31
2022/12/05 13:13:42;;;;;;;;;;;4.50;99.90;;;;;;2603459;54;20403;31
2022/12/05 13:16:18;;;;;;;;;;;4.60;99.90;;;;;;2603312;54;20779;31
2022/12/05 13:18:56;;;;;;;;;;;4.50;99.90;;;;;;2603176;54;20017;31
2022/12/05 13:21:29;;;;;;;;;;;4.50;99.90;;;;;;2603394;54;19947;31
2022/12/05 13:24:04;;;;;;;;;;;4.60;99.90;;;;;;2613255;46;19961;31
2022/12/05 13:26:39;;;;;;;;;;;4.60;99.90;;;;;;2603475;54;19943;31
2022/12/05 13:29:16;;;;;;;;;;;4.60;99.90;;;;;;2621825;46;19946;31
2022/12/05 13:31:51;;;;;;;;;;;4.60;99.90;;;;;;2603516;54;20025;31
2022/12/05 13:34:44;;;;;;;;;;;4.60;99.90;;;;;;2603483;54;19934;31
2022/12/05 13:43:01;;;;;;;;;;;4.60;99.90;;;;;;2603460;54;20770;31
2022/12/05 13:45:39;;;;;;;;;;;4.50;99.90;;;;;;2621749;46;20080;31
2022/12/05 13:48:21;;;;;;;;;;;4.50;99.90;;;;;;2603402;54;19934;31
2022/12/05 13:50:58;;;;;;;;;;;4.50;99.90;;;;;;2621752;46;20741;31
2022/12/05 13:53:32;;;;;;;;;;;4.50;99.90;;;;;;2603357;54;19934;31
2022/12/05 13:56:07;;;;;;;;;;;4.50;99.90;;;;;;2603189;54;20083;31
2022/12/05 13:58:46;;;;;;;;;;;4.50;99.90;;;;;;2602861;54;20062;31
2022/12/05 14:01:40;;;;;;;;;;;4.40;99.90;;;;;;2621756;47;19947;31
2022/12/05 14:04:23;;;;;;;;;;;4.40;99.90;;;;;;2603148;54;20702;31
2022/12/05 14:07:02;;;;;;;;;;;4.40;99.90;;;;;;2603147;54;19935;31
2022/12/05 14:09:49;;;;;;;;;;;4.40;99.90;;;;;;2621839;47;20303;31
2022/12/05 14:12:31;;;;;;;;;;;4.40;99.90;;;;;;2603092;54;20013;31
2022/12/05 14:15:05;;;;;;;;;;;4.50;99.90;;;;;;2622057;47;20773;31
2022/12/05 14:17:43;;;;;;;;;;;4.40;99.90;;;;;;2621765;47;19986;31
2022/12/05 14:20:22;;;;;;;;;;;4.40;99.90;;;;;;2603074;54;20786;31
2022/12/05 14:23:13;;;;;;;;;;;4.40;99.90;;;;;;2603155;54;20793;31
2022/12/05 14:25:54;;;;;;;;;;;4.60;99.90;;;;;;2621694;47;19934;31
2022/12/05 14:28:48;;;;;;;;;;;4.60;99.90;;;;;;2602951;54;20801;31
2022/12/05 14:31:29;;;;;;;;;;;4.60;99.90;;;;;;2608058;47;19934;31
2022/12/05 14:34:15;;;;;;;;;;;4.60;99.90;;;;;;2603135;54;20327;31
2022/12/05 14:36:54;;;;;;;;;;;4.60;99.90;;;;;;2603427;54;20695;31
2022/12/05 14:39:44;;;;;;;;;;;4.60;99.90;;;;;;2603190;54;19934;31
2022/12/05 14:42:24;;;;;;;;;;;4.60;99.90;;;;;;2617606;47;19994;31
2022/12/05 14:45:00;;;;;;;;;;;4.60;99.90;;;;;;2602818;54;19941;31
2022/12/05 14:47:34;;;;;;;;;;;4.60;99.90;;;;;;2602840;54;20708;31
2022/12/05 14:50:23;;;;;;;;;;;4.60;99.90;;;;;;2603198;54;19941;31
2022/12/05 14:53:12;;;;;;;;;;;4.60;99.90;;;;;;2603155;54;20029;31
2022/12/05 14:55:49;;;;;;;;;;;4.60;99.90;;;;;;2603148;54;20052;31
2022/12/05 14:58:26;;;;;;;;;;;4.50;99.90;;;;;;2603100;54;20773;31
2022/12/05 15:01:01;;;;;;;;;;;4.50;99.90;;;;;;2621561;47;19950;31
2022/12/05 15:03:38;;;;;;;;;;;4.50;99.90;;;;;;2608398;47;19950;31
2022/12/05 15:06:14;;;;;;;;;;;4.50;99.90;;;;;;2603054;54;19962;31
2022/12/05 15:08:48;;;;;;;;;;;4.50;99.90;;;;;;2621767;47;20001;31
2022/12/05 15:11:30;;;;;;;;;;;4.50;99.90;;;;;;2603770;54;19993;31
2022/12/05 15:14:03;;;;;;;;;;;4.60;99.90;;;;;;2603939;54;19942;31
2022/12/05 15:16:39;;;;;;;;;;;4.50;99.90;;;;;;2603721;54;20000;31
2022/12/05 15:19:13;;;;;;;;;;;4.60;99.90;;;;;;2603804;54;20009;31
2022/12/05 15:21:48;;;;;;;;;;;4.60;99.90;;;;;;2622304;46;19942;31
2022/12/05 15:24:22;;;;;;;;;;;4.60;99.90;;;;;;2618135;46;19934;31
2022/12/05 15:27:00;;;;;;;;;;;4.60;99.90;;;;;;2603698;54;19941;31
2022/12/05 15:29:35;;;;;;;;;;;4.60;99.90;;;;;;2603583;54;19942;31
2022/12/05 15:32:17;;;;;;;;;;;4.60;99.90;;;;;;2622498;46;19993;31
2022/12/05 15:34:53;;;;;;;;;;;4.60;99.90;;;;;;2603869;54;19935;31
2022/12/05 15:37:28;;;;;;;;;;;5.20;99.90;;;;;;2622188;46;19968;31
2022/12/05 15:40:03;;;;;;;;;;;4.60;99.90;;;;;;2622221;46;19934;31
2022/12/05 15:42:44;;;;;;;;;;;4.60;99.90;;;;;;2603588;54;21092;31
2022/12/05 15:45:23;;;;;;;;;;;4.70;99.90;;;;;;2603807;54;19993;31
2022/12/05 15:47:59;;;;;;;;;;;4.70;99.90;;;;;;2603712;54;19993;31
2022/12/05 15:50:35;;;;;;;;;;;4.70;99.90;;;;;;2603828;54;19946;31
2022/12/05 15:53:09;;;;;;;;;;;4.70;99.90;;;;;;2603755;54;20706;31
2022/12/05 15:55:43;;;;;;;;;;;4.70;99.90;;;;;;2602929;54;20769;31
2022/12/05 15:58:22;;;;;;;;;;;4.70;99.90;;;;;;2603074;54;19954;31
2022/12/05 16:00:57;;;;;;;;;;;4.80;99.90;;;;;;2602699;54;19935;31